createdAt,value
2018-06-03T00:02:00.787Z,97.50
2018-06-03T00:04:28.275Z,97.70
2018-06-03T00:06:55.782Z,97.80
2018-06-03T00:09:23.267Z,97.80
2018-06-03T00:11:50.752Z,98.00
2018-06-03T00:14:18.255Z,98.10
2018-06-03T00:16:45.743Z,98.50
2018-06-03T00:19:13.259Z,98.90
2018-06-03T00:21:42.535Z,98.90
2018-06-03T00:24:10.041Z,99.00
2018-06-03T00:26:38.290Z,99.30
2018-06-03T00:29:05.808Z,99.30
2018-06-03T00:31:33.323Z,99.50
2018-06-03T00:34:00.807Z,99.50
2018-06-03T00:36:40.276Z,99.80
2018-06-03T00:39:07.768Z,99.60
2018-06-03T00:41:35.279Z,99.80
2018-06-03T00:44:02.773Z,99.90
2018-06-03T00:46:30.279Z,99.90
2018-06-03T00:48:57.764Z,99.90
2018-06-03T00:51:25.271Z,99.90
2018-06-03T00:53:52.762Z,99.90
2018-06-03T00:56:32.139Z,99.90
2018-06-03T00:58:59.625Z,99.90
2018-06-03T01:01:27.123Z,99.90
2018-06-03T01:03:54.631Z,99.90
2018-06-03T01:06:22.121Z,99.90
2018-06-03T01:08:50.394Z,99.90
2018-06-03T01:11:18.648Z,99.90
2018-06-03T01:13:46.159Z,99.90
2018-06-03T01:16:13.655Z,99.90
2018-06-03T01:18:41.172Z,99.90
2018-06-03T01:21:08.670Z,99.90
2018-06-03T01:23:36.160Z,99.90
2018-06-03T01:26:04.435Z,99.90
2018-06-03T01:28:32.692Z,99.90
2018-06-03T01:31:00.199Z,99.90
2018-06-03T01:33:27.688Z,99.90
2018-06-03T01:35:55.190Z,99.90
2018-06-03T01:38:23.443Z,99.90
2018-06-03T01:40:50.955Z,99.90
2018-06-03T01:44:00.892Z,99.90
2018-06-03T01:46:29.319Z,99.90
2018-06-03T01:48:57.719Z,99.90
2018-06-03T01:51:26.147Z,99.90
2018-06-03T01:53:54.550Z,99.90
2018-06-03T01:56:22.984Z,99.90
2018-06-03T01:58:51.383Z,99.90
2018-06-03T02:01:19.791Z,99.90
2018-06-03T02:03:48.211Z,99.90
2018-06-03T02:08:44.747Z,99.90
2018-06-03T02:11:13.164Z,99.90
2018-06-03T02:13:41.602Z,99.90
2018-06-03T02:16:10.008Z,99.90
2018-06-03T02:18:38.412Z,99.90
2018-06-03T02:21:06.871Z,99.90
2018-06-03T02:23:35.310Z,99.90
2018-06-03T02:26:03.800Z,99.90
2018-06-03T02:28:32.256Z,99.90
2018-06-03T02:31:00.729Z,99.90
2018-06-03T02:33:29.196Z,99.90
2018-06-03T02:35:57.677Z,99.90
2018-06-03T02:38:26.140Z,99.90
2018-06-03T02:43:23.001Z,99.90
2018-06-03T02:50:47.977Z,99.90
2018-06-03T02:53:16.455Z,99.90
2018-06-03T02:55:44.936Z,99.90
2018-06-03T02:58:13.414Z,99.90
2018-06-03T03:00:41.894Z,99.90
2018-06-03T03:03:10.376Z,99.90
2018-06-03T03:05:38.843Z,99.90
2018-06-03T03:08:07.291Z,99.90
2018-06-03T03:10:35.781Z,99.90
2018-06-03T03:13:04.232Z,99.90
2018-06-03T03:15:32.714Z,99.90
2018-06-03T03:18:01.220Z,99.90
2018-06-03T03:20:29.709Z,99.90
2018-06-03T03:22:58.167Z,99.90
2018-06-03T03:25:26.652Z,99.90
2018-06-03T03:27:55.108Z,99.90
2018-06-03T03:30:23.592Z,99.90
2018-06-03T03:32:52.044Z,99.90
2018-06-03T03:35:20.489Z,99.90
2018-06-03T03:37:48.968Z,99.90
2018-06-03T03:40:17.423Z,99.90
2018-06-03T03:42:45.897Z,99.90
2018-06-03T03:45:14.353Z,99.90
2018-06-03T03:47:42.834Z,99.90
2018-06-03T03:50:11.285Z,99.90
2018-06-03T03:52:39.761Z,99.90
2018-06-03T03:57:36.336Z,99.90
2018-06-03T04:00:04.865Z,99.90
2018-06-03T04:02:33.328Z,99.90
2018-06-03T04:05:01.812Z,99.90
2018-06-03T04:07:30.260Z,99.90
2018-06-03T04:09:58.731Z,99.90
2018-06-03T04:12:27.184Z,99.90
2018-06-03T04:17:23.804Z,99.90
2018-06-03T04:19:52.284Z,99.90
2018-06-03T04:22:20.744Z,99.90
2018-06-03T04:24:49.208Z,99.90
2018-06-03T04:27:17.684Z,99.90
2018-06-03T04:29:46.140Z,99.90
2018-06-03T04:32:14.628Z,99.90
2018-06-03T04:37:11.236Z,99.90
2018-06-03T04:39:39.696Z,99.90
2018-06-03T04:42:08.173Z,99.90
2018-06-03T04:44:36.633Z,99.90
2018-06-03T04:47:05.093Z,99.90
2018-06-03T04:49:33.576Z,99.90
2018-06-03T04:52:02.053Z,99.90
2018-06-03T04:54:30.525Z,99.90
2018-06-03T04:56:58.983Z,99.90
2018-06-03T04:59:27.452Z,99.90
2018-06-03T05:01:55.916Z,99.90
2018-06-03T05:04:24.383Z,99.90
2018-06-03T05:09:21.016Z,99.90
2018-06-03T05:11:49.482Z,99.90
2018-06-03T05:14:17.931Z,99.90
2018-06-03T05:16:46.404Z,99.90
2018-06-03T05:19:14.863Z,99.90
2018-06-03T05:24:11.474Z,99.90
2018-06-03T05:26:39.940Z,99.90
2018-06-03T05:29:08.420Z,99.90
2018-06-03T05:31:36.908Z,99.90
2018-06-03T05:34:05.727Z,99.90
2018-06-03T05:36:34.176Z,99.90
2018-06-03T05:39:02.709Z,99.90
2018-06-03T05:41:31.171Z,99.90
2018-06-03T05:43:59.652Z,99.90
2018-06-03T05:46:28.112Z,99.90
2018-06-03T05:48:56.600Z,99.90
2018-06-03T05:51:25.057Z,99.90
2018-06-03T05:53:53.511Z,99.90
2018-06-03T05:56:21.987Z,99.90
2018-06-03T05:58:50.450Z,99.90
2018-06-03T06:01:18.929Z,99.90
2018-06-03T06:03:47.392Z,99.90
2018-06-03T06:06:15.871Z,99.90
2018-06-03T06:08:44.323Z,99.90
2018-06-03T06:11:12.783Z,99.90
2018-06-03T06:13:41.265Z,99.90
2018-06-03T06:16:09.728Z,99.90
2018-06-03T06:18:38.215Z,99.90
2018-06-03T06:21:06.680Z,99.90
2018-06-03T06:26:03.292Z,99.90
2018-06-03T06:28:31.755Z,99.90
2018-06-03T06:31:00.236Z,99.90
2018-06-03T06:33:28.688Z,99.90
2018-06-03T06:35:57.169Z,99.90
2018-06-03T06:40:53.785Z,99.90
2018-06-03T06:43:22.256Z,99.90
2018-06-03T06:45:50.736Z,99.90
2018-06-03T06:48:19.200Z,99.90
2018-06-03T06:50:47.700Z,99.90
2018-06-03T06:53:16.160Z,99.90
2018-06-03T06:55:44.633Z,99.90
2018-06-03T06:58:13.117Z,99.90
2018-06-03T07:00:41.588Z,99.90
2018-06-03T07:03:10.072Z,99.90
2018-06-03T07:05:38.530Z,99.90
2018-06-03T07:08:07.008Z,99.90
2018-06-03T07:10:35.471Z,99.90
2018-06-03T07:13:03.973Z,99.90
2018-06-03T07:18:00.565Z,99.90
2018-06-03T07:20:29.069Z,99.90
2018-06-03T07:22:57.525Z,99.90
2018-06-03T07:25:26.009Z,99.90
2018-06-03T07:27:54.469Z,99.90
2018-06-03T07:30:22.965Z,99.90
2018-06-03T07:32:51.428Z,99.90
2018-06-03T07:37:48.071Z,99.90
2018-06-03T07:42:44.672Z,99.20
2018-06-03T07:45:13.164Z,99.40
2018-06-03T07:47:41.616Z,99.60
2018-06-03T07:50:10.072Z,99.60
2018-06-03T07:55:06.685Z,99.40
2018-06-03T07:57:35.164Z,99.10
2018-06-03T08:00:03.689Z,99.50
2018-06-03T08:02:32.169Z,98.70
2018-06-03T08:05:00.616Z,99.20
2018-06-03T08:07:29.112Z,99.60
2018-06-03T08:09:57.560Z,98.90
2018-06-03T08:12:26.021Z,98.40
2018-06-03T08:14:54.500Z,97.60
2018-06-03T08:17:22.953Z,97.80
2018-06-03T08:22:19.560Z,98.40
2018-06-03T08:24:48.060Z,97.70
2018-06-03T08:27:16.524Z,98.00
2018-06-03T08:29:45.049Z,98.00
2018-06-03T08:32:13.488Z,97.70
2018-06-03T08:34:41.956Z,97.60
2018-06-03T08:37:10.440Z,97.90
2018-06-03T08:39:38.920Z,97.40
2018-06-03T08:42:07.380Z,97.40
2018-06-03T08:44:35.873Z,97.40
2018-06-03T08:47:04.428Z,97.70
2018-06-03T08:52:01.034Z,96.70
2018-06-03T08:54:29.488Z,95.70
2018-06-03T08:56:57.968Z,96.00
2018-06-03T08:59:26.424Z,95.80
2018-06-03T09:04:23.054Z,95.10
2018-06-03T09:06:51.591Z,94.60
2018-06-03T09:11:48.152Z,94.90
2018-06-03T09:14:16.624Z,93.80
2018-06-03T09:16:45.085Z,94.10
2018-06-03T09:19:13.564Z,93.50
2018-06-03T09:21:42.016Z,94.50
2018-06-03T09:24:10.489Z,92.60
2018-06-03T09:26:38.935Z,92.70
2018-06-03T09:29:07.412Z,93.60
2018-06-03T09:31:35.936Z,91.90
2018-06-03T09:34:04.403Z,92.40
2018-06-03T09:36:32.868Z,90.10
2018-06-03T09:39:01.317Z,90.10
2018-06-03T09:41:29.788Z,90.20
2018-06-03T09:43:58.260Z,91.00
2018-06-03T09:46:26.736Z,90.00
2018-06-03T09:48:55.191Z,90.40
2018-06-03T09:51:23.651Z,90.30
2018-06-03T09:53:52.128Z,90.50
2018-06-03T09:56:20.571Z,91.00
2018-06-03T09:58:49.045Z,89.40
2018-06-03T10:01:17.533Z,89.10
2018-06-03T10:06:14.163Z,85.50
2018-06-03T10:08:42.648Z,84.00
2018-06-03T10:11:11.100Z,85.20
2018-06-03T10:13:39.581Z,83.40
2018-06-03T10:16:08.115Z,81.60
2018-06-03T10:18:36.516Z,78.90
2018-06-03T10:21:04.992Z,80.10
2018-06-03T10:23:33.440Z,81.30
2018-06-03T10:26:01.928Z,82.20
2018-06-03T10:28:30.371Z,81.20
2018-06-03T10:30:58.848Z,80.90
2018-06-03T10:33:27.300Z,80.10
2018-06-03T10:35:55.748Z,79.70
2018-06-03T10:38:24.228Z,80.30
2018-06-03T10:40:52.693Z,82.30
2018-06-03T10:43:21.167Z,80.20
2018-06-03T10:45:49.608Z,80.00
2018-06-03T10:48:18.072Z,78.00
2018-06-03T10:50:46.524Z,78.20
2018-06-03T10:53:14.988Z,78.50
2018-06-03T10:55:43.460Z,78.80
2018-06-03T10:58:11.923Z,78.90
2018-06-03T11:00:40.396Z,78.30
2018-06-03T11:03:08.844Z,79.30
2018-06-03T11:05:37.324Z,78.30
2018-06-03T11:10:33.936Z,74.70
2018-06-03T11:13:02.384Z,72.40
2018-06-03T11:15:30.825Z,71.90
2018-06-03T11:17:59.291Z,66.00
2018-06-03T11:20:27.760Z,65.50
2018-06-03T11:22:56.234Z,64.90
2018-06-03T11:25:24.680Z,61.90
2018-06-03T11:27:53.153Z,60.80
2018-06-03T11:32:49.728Z,62.70
2018-06-03T11:35:18.200Z,58.30
2018-06-03T11:37:46.656Z,57.40
2018-06-03T11:40:15.124Z,59.40
2018-06-03T11:42:43.601Z,58.20
2018-06-03T11:45:12.076Z,52.50
2018-06-03T11:47:40.524Z,54.60
2018-06-03T11:50:09.002Z,54.70
2018-06-03T11:52:37.456Z,49.80
2018-06-03T11:57:50.069Z,47.80
2018-06-03T12:00:18.561Z,46.40
2018-06-03T12:05:15.164Z,46.60
2018-06-03T12:07:43.636Z,47.40
2018-06-03T12:10:12.093Z,47.50
2018-06-03T12:12:40.585Z,47.00
2018-06-03T12:15:09.049Z,44.40
2018-06-03T12:17:37.527Z,44.70
2018-06-03T12:22:34.140Z,44.40
2018-06-03T12:25:02.652Z,43.90
2018-06-03T12:32:27.413Z,43.40
2018-06-03T12:34:55.883Z,40.20
2018-06-03T12:37:24.343Z,36.30
2018-06-03T12:39:52.829Z,32.70
2018-06-03T12:42:21.307Z,31.40
2018-06-03T12:47:17.929Z,29.60
2018-06-03T12:49:46.381Z,29.80
2018-06-03T12:52:14.872Z,31.10
2018-06-03T12:54:43.324Z,33.10
2018-06-03T12:57:11.809Z,33.50
2018-06-03T12:59:40.260Z,34.60
2018-06-03T13:02:08.732Z,35.70
2018-06-03T13:04:37.184Z,36.30
2018-06-03T13:07:05.665Z,36.90
2018-06-03T13:09:34.121Z,38.20
2018-06-03T13:12:02.608Z,38.90
2018-06-03T13:14:31.080Z,39.10
2018-06-03T13:16:59.552Z,39.00
2018-06-03T13:19:27.996Z,39.40
2018-06-03T13:21:56.468Z,38.30
2018-06-03T13:24:24.920Z,37.50
2018-06-03T13:26:53.368Z,34.60
2018-06-03T13:31:49.985Z,29.30
2018-06-03T13:34:18.452Z,29.60
2018-06-03T13:36:46.905Z,27.50
2018-06-03T13:39:15.376Z,25.60
2018-06-03T13:41:43.841Z,25.20
2018-06-03T13:46:40.457Z,24.80
2018-06-03T13:49:08.916Z,24.40
2018-06-03T13:51:37.400Z,25.30
2018-06-03T13:54:05.894Z,25.90
2018-06-03T13:56:34.373Z,26.90
2018-06-03T13:59:02.840Z,27.10
2018-06-03T14:01:31.330Z,27.60
2018-06-03T14:03:59.784Z,28.00
2018-06-03T14:06:28.259Z,28.80
2018-06-03T14:08:56.724Z,29.60
2018-06-03T14:11:25.199Z,29.20
2018-06-03T14:13:53.650Z,29.60
2018-06-03T14:16:22.110Z,30.00
2018-06-03T14:18:50.581Z,31.50
2018-06-03T14:21:19.034Z,31.80
2018-06-03T14:23:47.508Z,31.80
2018-06-03T14:26:15.969Z,32.20
2018-06-03T14:28:44.467Z,31.90
2018-06-03T14:31:12.936Z,32.60
2018-06-03T14:33:41.408Z,31.80
2018-06-03T14:36:09.896Z,31.20
2018-06-03T14:38:38.356Z,31.90
2018-06-03T14:43:34.964Z,33.20
2018-06-03T14:50:59.712Z,32.90
2018-06-03T14:53:28.189Z,32.30
2018-06-03T14:55:56.640Z,33.50
2018-06-03T15:00:53.176Z,31.60
2018-06-03T15:03:21.648Z,32.00
2018-06-03T15:05:50.096Z,32.40
2018-06-03T15:08:18.567Z,33.10
2018-06-03T15:10:47.012Z,34.10
2018-06-03T15:13:15.468Z,33.70
2018-06-03T15:15:43.948Z,34.70
2018-06-03T15:18:12.403Z,35.40
2018-06-03T15:20:40.892Z,35.60
2018-06-03T15:23:09.352Z,36.00
2018-06-03T15:25:37.836Z,35.50
2018-06-03T15:28:06.296Z,35.90
2018-06-03T15:30:34.800Z,36.00
2018-06-03T15:33:03.256Z,36.70
2018-06-03T15:35:31.714Z,37.20
2018-06-03T15:38:00.184Z,37.50
2018-06-03T15:40:28.640Z,37.70
2018-06-03T15:42:57.125Z,38.50
2018-06-03T15:45:25.576Z,38.60
2018-06-03T15:47:54.044Z,38.50
2018-06-03T15:52:50.657Z,39.30
2018-06-03T15:55:19.113Z,39.30
2018-06-03T15:57:47.600Z,40.40
2018-06-03T16:00:16.089Z,40.10
2018-06-03T16:02:44.564Z,40.10
2018-06-03T16:05:13.016Z,40.70
2018-06-03T16:10:09.624Z,39.50
2018-06-03T16:12:38.086Z,39.70
2018-06-03T16:15:06.581Z,39.90
2018-06-03T16:17:35.128Z,40.60
2018-06-03T16:20:03.615Z,40.00
2018-06-03T16:25:00.312Z,40.00
2018-06-03T16:27:28.761Z,39.70
2018-06-03T16:29:57.245Z,40.00
2018-06-03T16:32:25.692Z,41.40
2018-06-03T16:37:22.294Z,41.40
2018-06-03T16:39:50.749Z,41.20
2018-06-03T16:42:19.220Z,41.20
2018-06-03T16:44:47.676Z,41.30
2018-06-03T16:49:44.280Z,42.40
2018-06-03T16:52:12.769Z,42.40
2018-06-03T16:54:41.225Z,42.10
2018-06-03T16:57:09.700Z,42.30
2018-06-03T16:59:38.195Z,42.60
2018-06-03T17:02:06.644Z,42.50
2018-06-03T17:04:35.120Z,42.50
2018-06-03T17:09:31.720Z,42.00
2018-06-03T17:12:00.176Z,42.50
2018-06-03T17:14:28.689Z,42.30
2018-06-03T17:16:57.149Z,42.10
2018-06-03T17:19:25.625Z,42.80
2018-06-03T17:21:54.083Z,42.80
2018-06-03T17:24:22.556Z,43.10
2018-06-03T17:26:51.012Z,42.80
2018-06-03T17:29:19.460Z,43.70
2018-06-03T17:31:47.928Z,43.60
2018-06-03T17:34:16.420Z,43.40
2018-06-03T17:36:44.896Z,44.40
2018-06-03T17:39:13.361Z,44.20
2018-06-03T17:41:41.832Z,44.30
2018-06-03T17:44:10.281Z,45.00
2018-06-03T17:46:38.760Z,44.70
2018-06-03T17:49:07.236Z,44.80
2018-06-03T17:51:35.721Z,45.00
2018-06-03T17:54:04.185Z,44.90
2018-06-03T17:56:32.643Z,45.40
2018-06-03T17:59:01.130Z,45.40
2018-06-03T18:01:29.580Z,45.60
2018-06-03T18:03:58.068Z,45.80
2018-06-03T18:06:26.528Z,46.20
2018-06-03T18:08:55.004Z,46.50
2018-06-03T18:11:23.480Z,47.80
2018-06-03T18:13:51.925Z,47.60
2018-06-03T18:16:20.403Z,48.20
2018-06-03T18:18:48.856Z,48.20
2018-06-03T18:21:17.343Z,48.50
2018-06-03T18:23:45.796Z,48.80
2018-06-03T18:28:42.412Z,49.50
2018-06-03T18:31:10.896Z,50.00
2018-06-03T18:33:39.354Z,49.80
2018-06-03T18:36:07.841Z,50.30
2018-06-03T18:38:36.292Z,50.20
2018-06-03T18:41:04.834Z,50.60
2018-06-03T18:43:33.262Z,50.70
2018-06-03T18:46:01.742Z,50.90
2018-06-03T18:48:30.193Z,51.50
2018-06-03T18:50:58.676Z,51.50
2018-06-03T18:53:27.128Z,52.00
2018-06-03T18:55:55.589Z,51.90
2018-06-03T18:58:24.072Z,51.80
2018-06-03T19:00:52.565Z,52.70
2018-06-03T19:03:21.040Z,52.50
2018-06-03T19:05:49.505Z,52.90
2018-06-03T19:08:17.976Z,53.60
2018-06-03T19:10:46.428Z,53.90
2018-06-03T19:13:14.892Z,54.10
2018-06-03T19:15:43.349Z,54.40
2018-06-03T19:18:11.808Z,54.80
2018-06-03T19:20:40.289Z,55.20
2018-06-03T19:23:08.733Z,55.60
2018-06-03T19:28:05.345Z,56.80
2018-06-03T19:30:33.874Z,56.70
2018-06-03T19:33:02.292Z,57.00
2018-06-03T19:35:30.778Z,57.50
2018-06-03T19:37:59.232Z,58.50
2018-06-03T19:40:27.708Z,58.10
2018-06-03T19:42:56.169Z,58.50
2018-06-03T19:45:24.632Z,59.10
2018-06-03T19:47:53.127Z,59.40
2018-06-03T19:50:21.572Z,59.90
2018-06-03T19:52:50.050Z,60.30
2018-06-03T19:55:18.500Z,60.70
2018-06-03T19:57:46.988Z,61.50
2018-06-03T20:00:15.428Z,61.50
2018-06-03T20:02:43.900Z,61.80
2018-06-03T20:05:12.349Z,61.90
2018-06-03T20:07:40.829Z,62.30
2018-06-03T20:10:09.297Z,62.60
2018-06-03T20:12:37.764Z,62.90
2018-06-03T20:15:06.304Z,63.40
2018-06-03T20:17:36.144Z,63.60
2018-06-03T20:20:05.932Z,63.80
2018-06-03T20:22:34.385Z,64.00
2018-06-03T20:25:02.860Z,64.20
2018-06-03T20:27:31.320Z,64.40
2018-06-03T20:29:59.788Z,65.20
2018-06-03T20:34:56.399Z,65.60
2018-06-03T20:37:24.847Z,66.30
2018-06-03T20:39:53.337Z,66.80
2018-06-03T20:42:21.792Z,67.60
2018-06-03T20:44:50.276Z,68.20
2018-06-03T20:47:18.761Z,68.60
2018-06-03T20:49:47.225Z,69.50
2018-06-03T20:54:43.839Z,70.50
2018-06-03T20:57:12.308Z,71.00
2018-06-03T20:59:40.828Z,71.90
2018-06-03T21:02:09.315Z,72.20
2018-06-03T21:04:37.779Z,72.80
2018-06-03T21:07:06.273Z,73.30
2018-06-03T21:09:34.734Z,74.10
2018-06-03T21:12:03.220Z,74.70
2018-06-03T21:14:31.659Z,75.60
2018-06-03T21:17:00.112Z,76.10
2018-06-03T21:21:56.711Z,77.70
2018-06-03T21:24:25.186Z,78.20
2018-06-03T21:26:53.648Z,78.60
2018-06-03T21:29:22.112Z,79.40
2018-06-03T21:34:18.708Z,81.00
2018-06-03T21:36:47.188Z,81.70
2018-06-03T21:39:15.641Z,82.80
2018-06-03T21:41:44.130Z,83.70
2018-06-03T21:44:12.588Z,85.70
2018-06-03T21:49:09.188Z,86.70
2018-06-03T21:51:37.663Z,87.40
2018-06-03T21:54:06.116Z,88.20
2018-06-03T21:56:34.591Z,89.00
2018-06-03T21:59:03.063Z,89.90
2018-06-03T22:01:31.580Z,90.30
2018-06-03T22:04:00.060Z,90.50
2018-06-03T22:06:28.553Z,90.80
2018-06-03T22:08:57.156Z,91.10
2018-06-03T22:11:25.624Z,91.40
2018-06-03T22:13:54.075Z,91.80
2018-06-03T22:16:22.551Z,92.10
2018-06-03T22:18:51.004Z,92.30
2018-06-03T22:21:19.496Z,92.60
2018-06-03T22:26:16.189Z,92.90
2018-06-03T22:28:44.815Z,93.20
2018-06-03T22:31:13.265Z,93.40
2018-06-03T22:33:41.744Z,93.60
2018-06-03T22:36:10.196Z,93.70
2018-06-03T22:38:38.645Z,93.90
2018-06-03T22:41:07.116Z,94.10
2018-06-03T22:43:35.571Z,94.20
2018-06-03T22:46:04.072Z,94.30
2018-06-03T22:48:32.524Z,94.40
2018-06-03T22:51:00.979Z,94.60
2018-06-03T22:53:29.460Z,94.70
2018-06-03T22:55:57.915Z,94.90
2018-06-03T22:58:26.384Z,95.00
2018-06-03T23:00:54.860Z,95.10
2018-06-03T23:03:23.340Z,95.20
2018-06-03T23:05:51.804Z,95.30
2018-06-03T23:08:20.280Z,95.40
2018-06-03T23:10:48.757Z,95.60
2018-06-03T23:13:17.204Z,95.50
2018-06-03T23:18:13.821Z,95.90
2018-06-03T23:20:42.301Z,95.90
2018-06-03T23:23:10.822Z,96.10
2018-06-03T23:25:39.309Z,96.40
2018-06-03T23:28:07.772Z,96.10
2018-06-03T23:33:04.404Z,96.40
2018-06-03T23:35:32.916Z,96.50
2018-06-03T23:38:01.405Z,96.60
2018-06-03T23:40:29.867Z,96.60
2018-06-03T23:42:58.348Z,96.80
2018-06-03T23:45:26.797Z,96.80
2018-06-03T23:47:55.252Z,96.60
2018-06-03T23:50:23.733Z,97.00
2018-06-03T23:52:52.180Z,97.00
2018-06-03T23:57:48.792Z,97.10
